EW0856 Weather Reports


Display with metric or nautical units.
time (UTC)temp
F
wind
direction
speed
MPH
gust
MPH
rain 1hr
in
rain 24hr
in
rain mn
in
humidity
%
barometer
mb
20190423080029 0 69 0.0 4.0 0.00 0.01 0.00 1018.5
20190423074525 0 144 0.0 1.0 0.00 0.01 0.00 1018.5
20190423073024 0 143 0.0 1.0 0.00 0.01 0.00 1018.9
20190423071659 0 143 0.0 0.0 0.00 0.01 0.00 1018.7
20190423070125 0 146 0.0 0.0 0.00 0.01 0.00 1018.8
20190423064625 0 146 0.0 0.0 0.00 0.01 0.00 1018.9
20190423063144 0 146 0.0 1.0 0.00 0.01 0.00 1019.0
20190423061554 0 146 0.0 1.0 0.00 0.01 0.00 1019.0
20190423060111 0 146 0.0 1.0 0.00 0.01 0.00 1019.2
20190423054607 0 88 0.0 2.0 0.00 0.01 0.00 1019.1
20190423053055 0 79 0.0 4.0 0.00 0.01 0.00 1019.1
20190423051608 0 116 0.0 1.0 0.00 0.01 0.00 1019.3
20190423050046 0 116 0.0 5.0 0.00 0.01 0.00 1019.5
20190423044559 0 74 0.0 2.0 0.00 0.01 0.00 1019.5
20190423043045 0 71 0.0 2.0 0.00 0.01 0.00 1019.6
20190423041536 0 83 0.0 2.0 0.00 0.01 0.00 1019.6
20190423040014 0 121 0.0 7.0 0.00 0.01 0.01 1019.7
20190423034647 0 192 0.0 4.0 0.00 0.01 0.01 1019.7
20190423033202 0 205 0.0 5.0 0.00 0.01 0.01 1019.6
20190423031632 0 161 0.0 5.0 0.00 0.01 0.01 1019.7
20190423030137 0 175 0.0 2.0 0.00 0.01 0.01 1019.6
20190423024612 0 70 0.0 4.0 0.00 0.01 0.01 1019.5
20190423023115 0 131 0.0 1.0 0.00 0.01 0.01 1019.7
20190423021558 0 128 0.0 4.0 0.00 0.01 0.01 1019.7
20190423020032 0 129 0.0 2.0 0.00 0.01 0.01 1019.7
20190423014552 0 158 0.0 2.0 0.00 0.01 0.01 1019.5
20190423013041 0 158 0.0 0.0 0.00 0.01 0.01 1019.3
20190423011531 0 158 0.0 1.0 0.00 0.01 0.01 1019.2
20190423010016 0 196 0.0 2.0 0.00 0.01 0.01 1019.1
20190423004510 0 225 1.0 8.0 0.00 0.01 0.01 1019.1
20190423003004 0 159 1.0 6.0 0.00 0.01 0.01 1019.2
20190423001746 0 171 2.0 5.0 0.00 0.01 0.01 1019.2
20190423000117 0 183 2.0 8.0 0.00 0.01 0.01 1019.1
20190422234627 0 205 0.0 6.0 0.00 0.01 0.01 1019.1
20190422233148 0 196 4.0 10.0 0.00 0.01 0.01 1019.3
20190422231628 0 175 1.0 5.0 0.00 0.01 0.01 1019.3
20190422230203 0 183 1.0 7.0 0.00 0.01 0.01 1019.4
20190422224536 0 127 1.0 5.0 0.00 0.01 0.01 1019.4
20190422223111 0 186 2.0 15.0 0.00 0.01 0.01 1019.4
20190422221619 0 186 6.0 12.0 0.00 0.01 0.01 1019.4
20190422220043 0 217 5.0 16.0 0.00 0.01 0.01 1019.5
20190422214524 0 199 4.0 20.0 0.00 0.01 0.01 1019.4
20190422213027 0 169 2.0 12.0 0.00 0.01 0.01 1019.4
20190422211507 0 192 6.0 12.0 0.00 0.01 0.01 1019.7
20190422210205 0 204 7.0 21.0 0.00 0.01 0.01 1019.9
20190422204624 0 172 1.0 9.0 0.00 0.01 0.01 1019.8
20190422203137 0 196 3.0 8.0 0.00 0.01 0.01 1020.3
20190422201631 0 200 7.0 13.0 0.00 0.01 0.01 1020.3
20190422200119 0 215 5.0 12.0 0.00 0.01 0.01 1020.4
20190422194600 0 82 3.0 13.0 0.00 0.01 0.01 1020.4
20190422193147 0 223 4.0 14.0 0.00 0.01 0.01 1020.5
20190422191548 0 199 7.0 13.0 0.00 0.01 0.01 1020.6
20190422190103 0 246 6.0 20.0 0.00 0.01 0.01 1020.8
20190422184541 0 176 5.0 13.0 0.00 0.01 0.01 1020.8
20190422183033 0 215 5.0 16.0 0.00 0.01 0.01 1021.0
20190422181529 0 169 2.0 11.0 0.00 0.01 0.01 1021.1
20190422180014 0 178 2.0 9.0 0.00 0.01 0.01 1021.4
20190422174509 0 225 9.0 18.0 0.00 0.01 0.01 1021.5
20190422173144 0 172 4.0 16.0 0.00 0.01 0.01 1021.5
20190422171626 0 176 8.0 18.0 0.00 0.01 0.01 1021.6
20190422170135 0 167 5.0 12.0 0.00 0.01 0.01 1021.6
20190422164626 0 167 6.0 11.0 0.00 0.01 0.01 1021.7
20190422163142 0 109 3.0 9.0 0.00 0.01 0.01 1021.7
20190422161629 0 173 2.0 7.0 0.00 0.01 0.01 1021.7
20190422160152 0 108 2.0 11.0 0.00 0.01 0.01 1021.5
20190422154552 0 247 5.0 14.0 0.00 0.01 0.01 1021.4
20190422153127 0 71 1.0 12.0 0.00 0.01 0.01 1021.5
20190422151535 0 210 2.0 11.0 0.00 0.01 0.01 1021.4
20190422150024 0 134 4.0 10.0 0.00 0.01 0.01 1020.9
20190422144519 0 31 2.0 9.0 0.00 0.01 0.01 1021.1
20190422143007 0 191 3.0 10.0 0.00 0.01 0.01 1020.9
20190422141730 0 110 2.0 6.0 0.00 0.01 0.01 1020.8
20190422140138 0 130 3.0 7.0 0.00 0.01 0.01 1020.9
20190422134804 0 209 0.0 4.0 0.00 0.01 0.01 1020.7
20190422133142 0 86 0.0 7.0 0.00 0.01 0.01 1020.8
20190422131643 0 59 0.0 8.0 0.00 0.01 0.01 1020.8
20190422130128 0 53 3.0 6.0 0.00 0.01 0.01 1020.5
20190422124555 0 64 0.0 4.0 0.00 0.01 0.01 1020.6
20190422123100 0 67 0.0 4.0 0.00 0.01 0.01 1020.4
20190422121541 0 69 0.0 1.0 0.01 0.01 0.01 1020.5
20190422120040 0 70 0.0 2.0 0.01 0.01 0.01 1020.3
20190422114526 0 74 0.0 2.0 0.01 0.01 0.01 1019.9
20190422113021 0 72 0.0 2.0 0.01 0.01 0.01 1019.5
20190422111515 0 103 0.0 2.0 0.00 0.00 0.00 1019.5
20190422110004 0 105 0.0 1.0 0.00 0.00 0.00 1019.3
20190422104641 0 105 0.0 2.0 0.00 0.00 0.00 1019.4
20190422103200 0 174 0.0 0.0 0.00 0.00 0.00 1019.4
20190422101630 0 174 0.0 0.0 0.00 0.00 0.00 1019.2
20190422100216 0 174 0.0 0.0 0.00 0.00 0.00 1019.3
20190422094629 0 174 0.0 0.0 0.00 0.00 0.00 1019.4
20190422093219 0 174 0.0 0.0 0.00 0.00 0.00 1019.2
20190422091631 0 174 0.0 0.0 0.00 0.00 0.00 1019.1
20190422090056 0 174 0.0 0.0 0.00 0.00 0.00 1019.1
20190422084552 0 174 0.0 0.0 0.00 0.00 0.00 1019.2
20190422083035 0 174 0.0 0.0 0.00 0.00 0.00 1019.2
20190422081523 0 174 0.0 0.0 0.00 0.00 0.00 1019.2